^^
Your Local Weather - Clay, NY Station Historical Data
Daily Summary for June 4, 2017 Units:  English    Metric   Both
« Previous Day
Next Day »
Daily Weekly Monthly Yearly Custom
  High: Low: Average:
Temperature: 57.9 °F 44.7 °F 52.1 °F
Dew Point: 54.8 °F 42.4 °F 48.6 °F
Humidity: 94% 70% 88%
Wind Speed: 5.0mph 0.0mph 1.1mph
Wind Gust: 10.0mph - -
Wind- - ESE
Pressure: 29.98 in 29.69 in -
Precipitation: 0.49 in    
Historical Graphs
 
 
Tabular Data for June 4, 2017
Time Temperature Dew Point Pressure Wind Wind Speed Wind Gust Humidity Rainfall Rate (Hourly) solar
00:04 48.5 °F 44.5 °F 29.97 in Calm     86% 0.00 in 0 W/m2
00:10 48.5 °F 44.8 °F 29.97 in Calm     87% 0.00 in 0 W/m2
00:16 48.3 °F 44.6 °F 29.98 in Calm     87% 0.00 in 0 W/m2
00:22 48.1 °F 44.4 °F 29.97 in Calm     87% 0.00 in 0 W/m2
00:28 48.1 °F 44.4 °F 29.97 in Calm     87% 0.00 in 0 W/m2
00:34 48.1 °F 44.7 °F 29.97 in Calm     88% 0.00 in 0 W/m2
00:40 48.0 °F 44.6 °F 29.97 in Calm     88% 0.00 in 0 W/m2
00:46 48.0 °F 44.9 °F 29.97 in Calm     89% 0.00 in 0 W/m2
00:52 47.8 °F 44.7 °F 29.97 in Calm     89% 0.00 in 0 W/m2
00:58 47.6 °F 44.5 °F 29.97 in Calm     89% 0.00 in 0 W/m2
01:04 47.6 °F 44.5 °F 29.97 in Calm     89% 0.00 in 0 W/m2
01:10 47.5 °F 44.4 °F 29.97 in Calm     89% 0.00 in 0 W/m2
01:16 47.3 °F 44.2 °F 29.97 in Calm     89% 0.00 in 0 W/m2
01:22 47.2 °F 44.1 °F 29.97 in Calm     89% 0.00 in 0 W/m2
01:28 47.1 °F 44.3 °F 29.97 in Calm     90% 0.00 in 0 W/m2
01:34 47.0 °F 44.2 °F 29.98 in Calm     90% 0.00 in 0 W/m2
01:40 46.9 °F 44.1 °F 29.98 in Calm     90% 0.00 in 0 W/m2
01:46 46.8 °F 44.0 °F 29.97 in Calm     90% 0.00 in 0 W/m2
01:52 46.9 °F 44.1 °F 29.97 in Calm     90% 0.00 in 0 W/m2
01:58 46.9 °F 44.1 °F 29.97 in Calm     90% 0.00 in 0 W/m2
02:04 46.7 °F 43.9 °F 29.97 in Calm     90% 0.00 in 0 W/m2
02:10 46.6 °F 43.8 °F 29.98 in Calm     90% 0.00 in 0 W/m2
02:16 46.5 °F 43.7 °F 29.98 in Calm     90% 0.00 in 0 W/m2
02:22 46.4 °F 43.6 °F 29.98 in Calm     90% 0.00 in 0 W/m2
02:28 46.4 °F 43.9 °F 29.98 in Calm     91% 0.00 in 0 W/m2
02:34 46.5 °F 44.0 °F 29.98 in Calm     91% 0.00 in 0 W/m2
02:40 46.5 °F 44.0 °F 29.98 in Calm     91% 0.00 in 0 W/m2
02:46 46.4 °F 43.9 °F 29.97 in Calm     91% 0.00 in 0 W/m2
02:52 46.3 °F 43.8 °F 29.97 in Calm     91% 0.00 in 0 W/m2
02:58 46.2 °F 43.7 °F 29.97 in Calm     91% 0.00 in 0 W/m2
03:04 46.2 °F 43.7 °F 29.97 in Calm     91% 0.00 in 0 W/m2
03:10 46.1 °F 43.6 °F 29.97 in Calm     91% 0.00 in 0 W/m2
03:16 45.9 °F 43.4 °F 29.97 in Calm     91% 0.00 in 0 W/m2
03:22 45.8 °F 43.3 °F 29.96 in Calm     91% 0.00 in 0 W/m2
03:28 45.8 °F 43.3 °F 29.96 in Calm     91% 0.00 in 0 W/m2
03:34 45.8 °F 43.3 °F 29.96 in Calm     91% 0.00 in 0 W/m2
03:40 45.8 °F 43.3 °F 29.96 in Calm     91% 0.00 in 0 W/m2
03:46 45.7 °F 43.2 °F 29.96 in Calm     91% 0.00 in 0 W/m2
03:52 45.8 °F 43.3 °F 29.96 in Calm     91% 0.00 in 0 W/m2
03:58 45.7 °F 43.2 °F 29.95 in Calm     91% 0.00 in 0 W/m2
04:04 45.6 °F 43.1 °F 29.95 in Calm     91% 0.00 in 0 W/m2
04:10 45.5 °F 43.0 °F 29.95 in Calm     91% 0.00 in 0 W/m2
04:16 45.4 °F 42.9 °F 29.95 in Calm     91% 0.00 in 0 W/m2
04:22 45.3 °F 42.8 °F 29.95 in Calm     91% 0.00 in 0 W/m2
04:28 45.1 °F 42.6 °F 29.95 in Calm     91% 0.00 in 0 W/m2
04:34 45.0 °F 42.5 °F 29.95 in Calm     91% 0.00 in 0 W/m2
04:40 44.9 °F 42.4 °F 29.95 in Calm     91% 0.00 in 0 W/m2
04:46 44.9 °F 42.4 °F 29.95 in Calm     91% 0.00 in 0 W/m2
04:52 44.8 °F 42.6 °F 29.95 in Calm     92% 0.00 in 0 W/m2
04:58 44.8 °F 42.6 °F 29.95 in Calm     92% 0.00 in 0 W/m2
05:04 44.9 °F 42.7 °F 29.95 in Calm   1.0 mph 92% 0.00 in 0 W/m2
05:10 44.9 °F 42.7 °F 29.95 in Calm     92% 0.00 in 0 W/m2
05:16 44.9 °F 42.7 °F 29.95 in Calm     92% 0.00 in 0 W/m2
05:22 44.9 °F 42.7 °F 29.95 in Calm     92% 0.00 in 0 W/m2
05:28 44.9 °F 42.7 °F 29.95 in Calm   1.0 mph 92% 0.00 in 0 W/m2
05:36 44.8 °F 42.6 °F 29.95 in Calm     92% 0.00 in 0 W/m2
05:42 44.7 °F 42.5 °F 29.94 in Calm   1.0 mph 92% 0.00 in 5 W/m2
05:48 44.7 °F 42.5 °F 29.94 in Calm   1.0 mph 92% 0.00 in 7 W/m2
05:54 44.7 °F 42.5 °F 29.94 in Calm     92% 0.00 in 9 W/m2
06:00 44.9 °F 42.4 °F 29.94 in Calm     91% 0.00 in 12 W/m2
06:06 45.0 °F 42.5 °F 29.94 in Calm     91% 0.00 in 16 W/m2
06:12 45.2 °F 42.7 °F 29.95 in Calm     91% 0.00 in 21 W/m2
06:18 45.4 °F 42.9 °F 29.95 in Calm     91% 0.00 in 30 W/m2
06:24 45.7 °F 43.2 °F 29.95 in Calm     91% 0.00 in 39 W/m2
06:30 46.0 °F 43.5 °F 29.95 in Calm     91% 0.00 in 51 W/m2
06:36 46.3 °F 43.8 °F 29.95 in Calm     91% 0.00 in 81 W/m2
06:42 47.1 °F 44.6 °F 29.95 in Calm     91% 0.00 in 69 W/m2
06:48 47.4 °F 44.9 °F 29.94 in Calm     91% 0.00 in 86 W/m2
06:54 47.6 °F 44.8 °F 29.95 in Calm   1.0 mph 90% 0.00 in 69 W/m2
07:00 48.2 °F 45.1 °F 29.95 in Calm     89% 0.00 in 74 W/m2
07:06 48.8 °F 45.7 °F 29.95 in Calm     89% 0.00 in 105 W/m2
07:12 49.4 °F 46.0 °F 29.95 in Calm     88% 0.00 in 114 W/m2
07:18 50.0 °F 45.7 °F 29.95 in Calm   2.0 mph 85% 0.00 in 86 W/m2
07:24 50.3 °F 45.0 °F 29.94 in East 1.0 mph 3.0 mph 82% 0.00 in 93 W/m2
07:30 50.5 °F 44.6 °F 29.94 in East 1.0 mph 1.0 mph 80% 0.00 in 111 W/m2
07:36 50.9 °F 44.9 °F 29.94 in East 1.0 mph 1.0 mph 80% 0.00 in 118 W/m2
07:42 51.1 °F 44.8 °F 29.94 in Calm     79% 0.00 in 100 W/m2
07:48 51.4 °F 44.8 °F 29.94 in Calm   1.0 mph 78% 0.00 in 86 W/m2
07:54 51.5 °F 44.5 °F 29.94 in Calm   1.0 mph 77% 0.00 in 76 W/m2
08:00 51.6 °F 44.3 °F 29.94 in Calm     76% 0.00 in 72 W/m2
08:06 51.6 °F 44.6 °F 29.94 in Calm     77% 0.00 in 72 W/m2
08:12 51.7 °F 45.1 °F 29.93 in Calm     78% 0.00 in 81 W/m2
08:18 51.6 °F 44.6 °F 29.93 in East 1.0 mph 1.0 mph 77% 0.00 in 97 W/m2
08:24 51.7 °F 44.7 °F 29.93 in East 1.0 mph 3.0 mph 77% 0.00 in 111 W/m2
08:30 52.0 °F 45.4 °F 29.93 in Calm     78% 0.00 in 120 W/m2
08:36 52.3 °F 45.6 °F 29.93 in Calm     78% 0.00 in 146 W/m2
08:42 52.6 °F 44.9 °F 29.94 in Calm   5.0 mph 75% 0.00 in 128 W/m2
08:48 52.9 °F 45.2 °F 29.94 in East 1.0 mph 5.0 mph 75% 0.00 in 113 W/m2
08:54 53.2 °F 45.8 °F 29.94 in Calm   1.0 mph 76% 0.00 in 118 W/m2
09:00 53.4 °F 45.7 °F 29.94 in Calm     75% 0.00 in 116 W/m2
09:06 53.5 °F 46.1 °F 29.94 in Calm   1.0 mph 76% 0.00 in 113 W/m2
09:12 53.7 °F 46.3 °F 29.94 in Calm     76% 0.00 in 120 W/m2
09:18 53.9 °F 46.2 °F 29.94 in Calm     75% 0.00 in 146 W/m2
09:24 54.1 °F 45.6 °F 29.94 in Calm   2.0 mph 73% 0.00 in 158 W/m2
09:30 54.3 °F 46.2 °F 29.94 in East 1.0 mph 2.0 mph 74% 0.00 in 158 W/m2
09:36 54.5 °F 46.4 °F 29.94 in SE 2.0 mph 2.0 mph 74% 0.00 in 155 W/m2
09:42 54.7 °F 46.2 °F 29.94 in SE 1.0 mph 2.0 mph 73% 0.00 in 190 W/m2
09:48 55.0 °F 45.8 °F 29.93 in Calm   2.0 mph 71% 0.00 in 199 W/m2
09:54 55.4 °F 46.2 °F 29.93 in Calm     71% 0.00 in 216 W/m2
10:00 55.8 °F 46.5 °F 29.93 in Calm     71% 0.00 in 218 W/m2
10:06 56.2 °F 46.9 °F 29.92 in Calm   3.0 mph 71% 0.00 in 209 W/m2
10:12 56.4 °F 46.7 °F 29.92 in SE 1.0 mph 2.0 mph 70% 0.00 in 197 W/m2
10:18 56.6 °F 47.3 °F 29.92 in Calm   2.0 mph 71% 0.00 in 181 W/m2
10:24 56.9 °F 47.2 °F 29.91 in Calm   1.0 mph 70% 0.00 in 171 W/m2
10:30 57.2 °F 47.9 °F 29.91 in Calm   2.0 mph 71% 0.00 in 148 W/m2
10:36 57.3 °F 47.6 °F 29.91 in Calm   2.0 mph 70% 0.00 in 130 W/m2
10:42 57.6 °F 47.9 °F 29.90 in Calm     70% 0.00 in 130 W/m2
10:48 57.9 °F 48.9 °F 29.89 in Calm     72% 0.00 in 146 W/m2
10:54 57.7 °F 48.7 °F 29.89 in Calm     72% 0.00 in 134 W/m2
11:00 57.7 °F 49.8 °F 29.89 in Calm     75% 0.00 in 109 W/m2
11:06 57.5 °F 50.3 °F 29.89 in Calm     77% 0.00 in 104 W/m2
11:12 57.4 °F 50.2 °F 29.89 in Calm     77% 0.00 in 98 W/m2
11:18 57.4 °F 49.2 °F 29.89 in SW 1.0 mph 2.0 mph 74% 0.00 in 105 W/m2
11:24 57.3 °F 49.1 °F 29.89 in WSW 2.0 mph 3.0 mph 74% 0.00 in 91 W/m2
11:30 56.6 °F 49.5 °F 29.88 in South 2.0 mph 2.0 mph 77% 0.00 in 142 W/m2
11:36 56.5 °F 49.7 °F 29.89 in SSW 1.0 mph 2.0 mph 78% 0.00 in 156 W/m2
11:42 56.3 °F 50.2 °F 29.89 in SSW 2.0 mph 2.0 mph 80% 0.06 in 141 W/m2
11:48 56.1 °F 50.0 °F 29.88 in South 1.0 mph 2.0 mph 80% 0.05 in 163 W/m2
11:54 56.1 °F 51.0 °F 29.88 in SSE 1.0 mph 2.0 mph 83% 0.04 in 185 W/m2
12:00 56.0 °F 50.9 °F 29.88 in SSW 2.0 mph 2.0 mph 83% 0.04 in 148 W/m2
12:06 55.7 °F 50.6 °F 29.87 in South 3.0 mph 5.0 mph 83% 0.04 in 185 W/m2
12:12 55.3 °F 50.5 °F 29.86 in SSE 5.0 mph 6.0 mph 84% 0.04 in 197 W/m2
12:18 55.1 °F 50.7 °F 29.86 in SSE 5.0 mph 10.0 mph 85% 0.04 in 158 W/m2
12:24 54.9 °F 50.5 °F 29.85 in SE 5.0 mph 6.0 mph 85% 0.04 in 148 W/m2
12:30 54.8 °F 50.7 °F 29.85 in SE 5.0 mph 5.0 mph 86% 0.04 in 174 W/m2
12:36 54.8 °F 50.7 °F 29.85 in ESE 4.0 mph 5.0 mph 86% 0.04 in 102 W/m2
12:42 54.6 °F 50.5 °F 29.85 in SSE 5.0 mph 6.0 mph 86% 0.00 in 46 W/m2
12:48 54.4 °F 50.3 °F 29.85 in SSE 5.0 mph 6.0 mph 86% 0.00 in 77 W/m2
12:54 54.4 °F 50.6 °F 29.85 in SSE 3.0 mph 4.0 mph 87% 0.00 in 109 W/m2
13:00 54.4 °F 50.6 °F 29.85 in SSE 3.0 mph 4.0 mph 87% 0.00 in 76 W/m2
13:06 54.4 °F 50.6 °F 29.85 in SSE 2.0 mph 4.0 mph 87% 0.00 in 70 W/m2
13:12 54.3 °F 50.5 °F 29.85 in SSE 3.0 mph 5.0 mph 87% 0.00 in 98 W/m2
13:18 54.1 °F 50.3 °F 29.85 in SE 4.0 mph 6.0 mph 87% 0.00 in 95 W/m2
13:24 53.9 °F 50.4 °F 29.85 in South 3.0 mph 5.0 mph 88% 0.08 in 81 W/m2
13:30 53.8 °F 50.3 °F 29.85 in SW 3.0 mph 3.0 mph 88% 0.08 in 86 W/m2
13:36 53.7 °F 50.5 °F 29.85 in South 3.0 mph 5.0 mph 89% 0.10 in 67 W/m2
13:42 53.5 °F 50.3 °F 29.85 in SSE 2.0 mph 2.0 mph 89% 0.07 in 47 W/m2
13:48 53.4 °F 50.5 °F 29.85 in SSE 1.0 mph 2.0 mph 90% 0.09 in 44 W/m2
13:54 53.5 °F 50.6 °F 29.85 in NE 1.0 mph 1.0 mph 90% 0.07 in 49 W/m2
14:00 53.6 °F 50.7 °F 29.85 in SE 1.0 mph 3.0 mph 90% 0.06 in 76 W/m2
14:06 53.6 °F 51.0 °F 29.85 in SSE 1.0 mph 3.0 mph 91% 0.18 in 76 W/m2
14:12 53.5 °F 50.9 °F 29.85 in SE 1.0 mph 4.0 mph 91% 0.13 in 76 W/m2
14:20 53.4 °F 50.8 °F 29.83 in SE 2.0 mph 2.0 mph 91% 0.10 in 118 W/m2
14:26 53.4 °F 50.8 °F 29.83 in SSE 2.0 mph 2.0 mph 91% 0.08 in 116 W/m2
14:32 53.5 °F 50.9 °F 29.83 in SE 2.0 mph 2.0 mph 91% 0.08 in 97 W/m2
14:38 53.6 °F 51.0 °F 29.83 in SSE 1.0 mph 5.0 mph 91% 0.13 in 67 W/m2
14:44 53.6 °F 51.3 °F 29.82 in SE 2.0 mph 2.0 mph 92% 0.06 in 88 W/m2
14:50 53.5 °F 51.2 °F 29.82 in ENE 2.0 mph 2.0 mph 92% 0.06 in 111 W/m2
14:56 53.4 °F 51.1 °F 29.82 in SE 2.0 mph 2.0 mph 92% 0.05 in 86 W/m2
15:02 53.3 °F 51.0 °F 29.82 in SE 2.0 mph 3.0 mph 92% 0.05 in 74 W/m2
15:08 53.3 °F 51.0 °F 29.82 in ENE 2.0 mph 4.0 mph 92% 0.05 in 77 W/m2
15:14 53.3 °F 51.0 °F 29.82 in NNE 2.0 mph 3.0 mph 92% 0.00 in 72 W/m2
15:20 53.5 °F 51.2 °F 29.81 in ENE 1.0 mph 2.0 mph 92% 0.00 in 77 W/m2
15:26 53.5 °F 51.2 °F 29.80 in ESE 2.0 mph 2.0 mph 92% 0.00 in 95 W/m2
15:32 53.6 °F 51.3 °F 29.80 in SE 2.0 mph 2.0 mph 92% 0.00 in 125 W/m2
15:38 53.7 °F 51.4 °F 29.80 in SE 2.0 mph 3.0 mph 92% 0.00 in 83 W/m2
15:44 53.6 °F 51.3 °F 29.80 in SE 3.0 mph 5.0 mph 92% 0.00 in 105 W/m2
15:50 53.7 °F 51.4 °F 29.80 in SSE 2.0 mph 6.0 mph 92% 0.00 in 67 W/m2
15:56 53.7 °F 51.4 °F 29.80 in SE 2.0 mph 8.0 mph 92% 0.00 in 56 W/m2
16:02 53.6 °F 51.3 °F 29.80 in SSE 2.0 mph 5.0 mph 92% 0.00 in 51 W/m2
16:08 53.7 °F 51.4 °F 29.80 in SE 3.0 mph 5.0 mph 92% 0.00 in 70 W/m2
16:14 53.8 °F 51.5 °F 29.79 in SSE 3.0 mph 3.0 mph 92% 0.00 in 111 W/m2
16:20 54.0 °F 51.7 °F 29.79 in ENE 2.0 mph 4.0 mph 92% 0.00 in 123 W/m2
16:26 54.0 °F 51.7 °F 29.78 in SE 2.0 mph 4.0 mph 92% 0.00 in 90 W/m2
16:32 54.1 °F 51.8 °F 29.78 in SW 2.0 mph 2.0 mph 92% 0.00 in 79 W/m2
16:38 54.2 °F 51.9 °F 29.78 in ESE 1.0 mph 2.0 mph 92% 0.00 in 53 W/m2
16:44 54.1 °F 51.8 °F 29.77 in SE 2.0 mph 6.0 mph 92% 0.00 in 49 W/m2
16:50 54.1 °F 51.8 °F 29.77 in NE 3.0 mph 3.0 mph 92% 0.00 in 39 W/m2
16:56 54.0 °F 51.7 °F 29.77 in NE 2.0 mph 3.0 mph 92% 0.00 in 26 W/m2
17:02 54.0 °F 51.7 °F 29.77 in SSE 2.0 mph 2.0 mph 92% 0.00 in 23 W/m2
17:08 53.9 °F 51.6 °F 29.77 in SE 2.0 mph 3.0 mph 92% 0.00 in 25 W/m2
17:14 54.0 °F 52.0 °F 29.77 in ENE 1.0 mph 1.0 mph 93% 0.00 in 26 W/m2
17:20 54.1 °F 52.1 °F 29.77 in ENE 1.0 mph 4.0 mph 93% 0.00 in 25 W/m2
17:26 54.1 °F 52.1 °F 29.77 in East 1.0 mph 4.0 mph 93% 0.00 in 26 W/m2
17:32 54.0 °F 52.0 °F 29.77 in ENE 1.0 mph 3.0 mph 93% 0.00 in 47 W/m2
17:38 54.0 °F 52.0 °F 29.77 in East 2.0 mph 4.0 mph 93% 0.00 in 33 W/m2
17:44 54.0 °F 52.0 °F 29.77 in ENE 2.0 mph 2.0 mph 93% 0.00 in 30 W/m2
17:50 54.1 °F 52.1 °F 29.76 in ENE 2.0 mph 2.0 mph 93% 0.00 in 42 W/m2
17:56 54.2 °F 52.2 °F 29.76 in SSE 1.0 mph 2.0 mph 93% 0.00 in 37 W/m2
18:02 54.2 °F 52.2 °F 29.76 in SSE 1.0 mph 1.0 mph 93% 0.00 in 30 W/m2
18:08 54.2 °F 52.2 °F 29.76 in ENE 2.0 mph 2.0 mph 93% 0.00 in 33 W/m2
18:14 54.3 °F 52.3 °F 29.76 in SE 2.0 mph 4.0 mph 93% 0.00 in 47 W/m2
18:20 54.4 °F 52.4 °F 29.75 in ENE 1.0 mph 5.0 mph 93% 0.00 in 72 W/m2
18:26 54.6 °F 52.6 °F 29.75 in SSE 2.0 mph 5.0 mph 93% 0.00 in 109 W/m2
18:32 54.7 °F 52.7 °F 29.75 in SE 2.0 mph 2.0 mph 93% 0.00 in 107 W/m2
18:38 54.8 °F 52.8 °F 29.75 in East 2.0 mph 2.0 mph 93% 0.00 in 100 W/m2
18:44 55.0 °F 53.0 °F 29.75 in NE 1.0 mph 2.0 mph 93% 0.00 in 35 W/m2
18:50 55.0 °F 53.0 °F 29.75 in SE 1.0 mph 1.0 mph 93% 0.00 in 46 W/m2
18:56 55.0 °F 53.0 °F 29.74 in SSE 1.0 mph 2.0 mph 93% 0.00 in 58 W/m2
19:02 55.1 °F 53.1 °F 29.74 in SE 2.0 mph 3.0 mph 93% 0.00 in 77 W/m2
19:08 55.1 °F 53.1 °F 29.74 in ENE 2.0 mph 4.0 mph 93% 0.00 in 49 W/m2
19:14 55.1 °F 53.1 °F 29.75 in East 2.0 mph 8.0 mph 93% 0.00 in 25 W/m2
19:20 55.0 °F 53.0 °F 29.74 in East 2.0 mph 2.0 mph 93% 0.00 in 32 W/m2
19:26 55.1 °F 53.1 °F 29.74 in ENE 1.0 mph 3.0 mph 93% 0.00 in 33 W/m2
19:32 55.1 °F 53.1 °F 29.75 in ENE 1.0 mph 3.0 mph 93% 0.00 in 19 W/m2
19:38 55.1 °F 53.1 °F 29.75 in East 1.0 mph 3.0 mph 93% 0.00 in 23 W/m2
19:44 55.1 °F 53.1 °F 29.75 in NE 2.0 mph 2.0 mph 93% 0.00 in 11 W/m2
19:50 55.1 °F 53.1 °F 29.75 in ENE 2.0 mph 2.0 mph 93% 0.00 in 11 W/m2
19:56 55.1 °F 53.1 °F 29.75 in ENE 2.0 mph 5.0 mph 93% 0.00 in 7 W/m2
20:03 55.1 °F 53.1 °F 29.75 in ENE 1.0 mph 2.0 mph 93% 0.00 in 9 W/m2
20:08 55.1 °F 53.1 °F 29.75 in East 1.0 mph 2.0 mph 93% 0.00 in 9 W/m2
20:14 55.2 °F 53.2 °F 29.74 in ENE 2.0 mph 2.0 mph 93% 0.00 in 7 W/m2
20:20 55.2 °F 53.2 °F 29.74 in East 2.0 mph 5.0 mph 93% 0.00 in 7 W/m2
20:26 55.2 °F 53.2 °F 29.74 in ENE 2.0 mph 5.0 mph 93% 0.00 in 7 W/m2
20:32 55.2 °F 53.2 °F 29.74 in ENE 1.0 mph 2.0 mph 93% 0.00 in 5 W/m2
20:38 55.2 °F 53.2 °F 29.74 in NE 1.0 mph 3.0 mph 93% 0.00 in 0 W/m2
20:44 55.2 °F 53.2 °F 29.73 in East 2.0 mph 4.0 mph 93% 0.00 in 0 W/m2
20:50 55.2 °F 53.2 °F 29.73 in East 2.0 mph 2.0 mph 93% 0.00 in 0 W/m2
20:56 55.2 °F 53.2 °F 29.72 in ENE 1.0 mph 2.0 mph 93% 0.00 in 0 W/m2
21:02 55.2 °F 53.2 °F 29.72 in Calm   3.0 mph 93% 0.00 in 0 W/m2
21:08 55.2 °F 53.2 °F 29.72 in NE 1.0 mph 3.0 mph 93% 0.00 in 0 W/m2
21:14 55.2 °F 53.2 °F 29.72 in NE 1.0 mph 2.0 mph 93% 0.00 in 0 W/m2
21:20 55.2 °F 53.2 °F 29.72 in East 1.0 mph 1.0 mph 93% 0.00 in 0 W/m2
21:26 55.3 °F 53.3 °F 29.72 in NE 1.0 mph 4.0 mph 93% 0.00 in 0 W/m2
21:32 55.3 °F 53.3 °F 29.72 in ENE 2.0 mph 2.0 mph 93% 0.00 in 0 W/m2
21:38 55.3 °F 53.3 °F 29.72 in ESE 1.0 mph 3.0 mph 93% 0.00 in 0 W/m2
21:44 55.3 °F 53.3 °F 29.72 in ENE 1.0 mph 1.0 mph 93% 0.00 in 0 W/m2
21:50 55.3 °F 53.3 °F 29.72 in ENE 1.0 mph 1.0 mph 93% 0.47 in 0 W/m2
21:56 55.3 °F 53.3 °F 29.72 in ENE 1.0 mph 1.0 mph 93% 0.12 in 0 W/m2
22:02 55.3 °F 53.3 °F 29.72 in ENE 1.0 mph 1.0 mph 93% 0.08 in 0 W/m2
22:08 55.3 °F 53.3 °F 29.71 in ENE 2.0 mph 2.0 mph 93% 0.12 in 0 W/m2
22:14 55.3 °F 53.3 °F 29.71 in ENE 1.0 mph 2.0 mph 93% 0.06 in 0 W/m2
22:20 55.2 °F 53.2 °F 29.71 in NNE 1.0 mph 4.0 mph 93% 0.04 in 0 W/m2
22:26 55.3 °F 53.3 °F 29.71 in NE 2.0 mph 4.0 mph 93% 0.00 in 0 W/m2
22:32 55.3 °F 53.3 °F 29.70 in North 2.0 mph 5.0 mph 93% 0.12 in 0 W/m2
22:38 55.3 °F 53.3 °F 29.69 in East 3.0 mph 5.0 mph 93% 0.05 in 0 W/m2
22:44 55.4 °F 53.4 °F 29.69 in ESE 3.0 mph 5.0 mph 93% 0.00 in 0 W/m2
22:50 55.5 °F 53.5 °F 29.69 in NE 2.0 mph 2.0 mph 93% 0.00 in 0 W/m2
22:56 55.5 °F 53.5 °F 29.69 in ENE 1.0 mph 2.0 mph 93% 0.00 in 0 W/m2
23:02 55.6 °F 53.6 °F 29.70 in NNE 1.0 mph 2.0 mph 93% 0.00 in 0 W/m2
23:08 55.7 °F 53.7 °F 29.69 in SSE 2.0 mph 3.0 mph 93% 0.11 in 0 W/m2
23:14 55.8 °F 54.1 °F 29.69 in ENE 2.0 mph 3.0 mph 94% 0.08 in 0 W/m2
23:20 55.9 °F 54.2 °F 29.69 in ESE 2.0 mph 2.0 mph 94% 0.07 in 0 W/m2
23:26 56.0 °F 54.3 °F 29.69 in SE 1.0 mph 2.0 mph 94% 0.47 in 0 W/m2
23:32 56.1 °F 54.4 °F 29.69 in NNE 1.0 mph 3.0 mph 94% 0.08 in 0 W/m2
23:38 56.3 °F 54.6 °F 29.72 in North 3.0 mph 6.0 mph 94% 0.39 in 0 W/m2
23:44 56.5 °F 54.8 °F 29.71 in North 5.0 mph 6.0 mph 94% 0.13 in 0 W/m2
23:50 56.5 °F 54.8 °F 29.72 in NNE 4.0 mph 4.0 mph 94% 0.07 in 0 W/m2
23:56 56.5 °F 54.8 °F 29.71 in SSE 3.0 mph 4.0 mph 94% 0.91 in 0 W/m2
Country Meadow, Clay, NY, USA
Compliments of Weather Underground - 2 mb